< Cyclone 197604 1976 Season Cyclone 197607 >
Cyclone 197606 (DAVID)
General InformationTrack Information on Google Maps || ResourceGoogle EarthGE AnimationAtom FeedGeoJSON
Detalied Best Track (Time Zone = UTC)
Year Month Day Hour Lat. Long. Pressure (hPa) Wind (kt) Class Image Chart
1976 1 13 23 -15.3 167.4 991 0 0 -- --
1976 1 14 05 -15.5 167.2 990 0 0 -- --
1976 1 14 11 -15.9 166.8 989 0 0 -- --
1976 1 14 17 -16.2 166.5 987 0 0 -- --
1976 1 14 23 -16.9 166.0 985 0 0 -- --
1976 1 15 05 -17.3 165.5 981 0 0 -- --
1976 1 15 11 -17.5 165.0 979 0 0 -- --
1976 1 15 17 -18.0 164.4 976 0 0 -- --
1976 1 15 23 -18.2 163.7 974 0 0 -- --
1976 1 16 05 -18.3 163.1 970 0 0 -- --
1976 1 16 11 -18.4 162.5 968 0 0 -- --
1976 1 16 17 -18.7 161.8 967 0 0 -- --
1976 1 16 23 -19.1 161.0 967 0 0 -- --
1976 1 17 05 -19.4 160.3 966 0 0 -- --
1976 1 17 11 -19.6 159.6 965 0 0 -- --
1976 1 17 17 -19.8 158.9 965 0 0 -- --
1976 1 17 23 -20.1 158.3 965 0 0 -- --
1976 1 18 05 -20.3 156.9 965 0 0 -- --
1976 1 18 11 -20.6 155.5 965 0 0 -- --
1976 1 18 17 -20.8 154.2 965 0 0 -- --
1976 1 18 23 -21.4 153.0 965 0 0 -- --
1976 1 19 05 -21.7 151.8 963 0 0 -- --
1976 1 19 11 -21.9 150.4 961 0 0 -- --
1976 1 19 14 -21.9 149.8 963 0 0 -- --
1976 1 19 17 -22.1 149.0 969 0 0 -- --
1976 1 19 23 -22.9 147.0 979 0 0 -- --
1976 1 20 05 -23.9 145.3 983 0 0 -- --
1976 1 20 11 -24.4 144.5 985 0 0 -- --
1976 1 20 17 -24.9 143.4 986 0 0 -- --
1976 1 20 23 -25.2 142.5 989 0 0 -- --
1976 1 21 02 -25.6 142.2 990 0 0 -- --
1976 1 21 05 -25.8 142.1 990 0 0 -- --
1976 1 21 11 -26.5 142.5 993 0 0 -- --
1976 1 21 23 -27.8 143.2 996 0 0 -- --
< Cyclone 197604 1976 Season Cyclone 197607 >

Help